Main page
METAR-TAF:

METAR-TAF

Airports :

Hannibal Regional Airport

Hannibal, Missouri, United States

latitude: 39-43-31N, longitude: 091-26-38W, elevation: 768 ft

Current weather observation

The report was made 17 minutes ago, at 18:55 UTC
Wind 3 mph from the North
Temperature 79°F
Humidity 54%
Pressure 30.12 in. Hg
Visibility: 10 miles
Scattered clouds at a height of 4000 ft
Scattered clouds at a height of 6000 ft
Broken clouds at a height of 8000 ft

METAR: KHAE 211855Z AUTO 35003KT 10SM SCT040 SCT060 BKN080 26/16 A3012 RMK AO2

Time: 14:12 (19:12 UTC)


TAF: missing

Weather observations and forecasts of more than 4000 airports (METAR and TAF reports).

The available stations are represented by yellow and red dots on the map.

Hover mouse over dot to see the name of the station.

Then click to see weather observations and forecasts.

To change the map : click on the green buttons with a black cross to zoom in, on the green button with a dash to zoom out, or on the green arrows for adjacent maps.


METAR-TAF: